sensor_id;sensor_type;location;lat;lon;timestamp;P1;durP1;ratioP1;P2;durP2;ratioP2
24897;SDS011;12957;49.434;8.684;2023-03-01T00:00:14;14.70;;;6.73;;
24897;SDS011;12957;49.434;8.684;2023-03-01T00:02:39;14.33;;;6.60;;
24897;SDS011;12957;49.434;8.684;2023-03-01T00:05:05;18.27;;;7.93;;
24897;SDS011;12957;49.434;8.684;2023-03-01T00:07:32;12.17;;;7.10;;
24897;SDS011;12957;49.434;8.684;2023-03-01T00:09:57;14.77;;;7.00;;
24897;SDS011;12957;49.434;8.684;2023-03-01T00:12:23;14.77;;;7.80;;
24897;SDS011;12957;49.434;8.684;2023-03-01T00:14:48;17.93;;;8.40;;
24897;SDS011;12957;49.434;8.684;2023-03-01T00:17:14;17.27;;;7.87;;
24897;SDS011;12957;49.434;8.684;2023-03-01T00:19:39;14.13;;;7.43;;
24897;SDS011;12957;49.434;8.684;2023-03-01T00:22:05;16.63;;;7.90;;
24897;SDS011;12957;49.434;8.684;2023-03-01T00:24:30;15.87;;;7.80;;
24897;SDS011;12957;49.434;8.684;2023-03-01T00:26:56;15.13;;;7.83;;
24897;SDS011;12957;49.434;8.684;2023-03-01T00:29:22;17.10;;;8.50;;
24897;SDS011;12957;49.434;8.684;2023-03-01T00:31:51;15.60;;;8.30;;
24897;SDS011;12957;49.434;8.684;2023-03-01T00:34:16;18.40;;;8.00;;
24897;SDS011;12957;49.434;8.684;2023-03-01T00:36:42;17.37;;;9.10;;
24897;SDS011;12957;49.434;8.684;2023-03-01T00:39:10;15.27;;;8.13;;
24897;SDS011;12957;49.434;8.684;2023-03-01T00:41:37;16.07;;;7.90;;
24897;SDS011;12957;49.434;8.684;2023-03-01T00:44:03;18.53;;;9.23;;
24897;SDS011;12957;49.434;8.684;2023-03-01T00:46:28;17.27;;;9.07;;
24897;SDS011;12957;49.434;8.684;2023-03-01T00:48:55;15.90;;;8.10;;
24897;SDS011;12957;49.434;8.684;2023-03-01T00:51:22;15.53;;;8.20;;
24897;SDS011;12957;49.434;8.684;2023-03-01T00:53:56;15.03;;;8.40;;
24897;SDS011;12957;49.434;8.684;2023-03-01T00:56:22;14.93;;;8.23;;
24897;SDS011;12957;49.434;8.684;2023-03-01T00:58:48;23.50;;;9.23;;
24897;SDS011;12957;49.434;8.684;2023-03-01T01:01:24;15.07;;;8.70;;
24897;SDS011;12957;49.434;8.684;2023-03-01T01:03:53;16.27;;;8.70;;
24897;SDS011;12957;49.434;8.684;2023-03-01T01:06:23;17.27;;;9.27;;
24897;SDS011;12957;49.434;8.684;2023-03-01T01:08:51;17.30;;;9.13;;
24897;SDS011;12957;49.434;8.684;2023-03-01T01:11:17;17.43;;;8.90;;
24897;SDS011;12957;49.434;8.684;2023-03-01T01:13:44;18.73;;;9.17;;
24897;SDS011;12957;49.434;8.684;2023-03-01T01:16:10;15.00;;;8.50;;
24897;SDS011;12957;49.434;8.684;2023-03-01T01:18:35;18.80;;;9.67;;
24897;SDS011;12957;49.434;8.684;2023-03-01T01:21:08;17.57;;;8.83;;
24897;SDS011;12957;49.434;8.684;2023-03-01T01:23:38;19.03;;;9.40;;
24897;SDS011;12957;49.434;8.684;2023-03-01T01:26:05;15.37;;;9.20;;
24897;SDS011;12957;49.434;8.684;2023-03-01T01:28:38;19.60;;;9.77;;
24897;SDS011;12957;49.434;8.684;2023-03-01T01:31:04;17.77;;;9.73;;
24897;SDS011;12957;49.434;8.684;2023-03-01T01:33:29;19.43;;;9.70;;
24897;SDS011;12957;49.434;8.684;2023-03-01T01:35:55;18.27;;;9.70;;
24897;SDS011;12957;49.434;8.684;2023-03-01T01:38:21;20.00;;;9.20;;
24897;SDS011;12957;49.434;8.684;2023-03-01T01:40:47;17.93;;;8.60;;
24897;SDS011;12957;49.434;8.684;2023-03-01T01:43:23;18.10;;;9.93;;
24897;SDS011;12957;49.434;8.684;2023-03-01T01:45:50;15.20;;;9.13;;
24897;SDS011;12957;49.434;8.684;2023-03-01T01:48:20;21.07;;;9.57;;
24897;SDS011;12957;49.434;8.684;2023-03-01T01:50:50;19.83;;;9.87;;
24897;SDS011;12957;49.434;8.684;2023-03-01T01:53:20;20.30;;;8.50;;
24897;SDS011;12957;49.434;8.684;2023-03-01T01:55:47;17.87;;;9.13;;
24897;SDS011;12957;49.434;8.684;2023-03-01T01:58:15;18.03;;;8.90;;
24897;SDS011;12957;49.434;8.684;2023-03-01T02:00:43;19.93;;;9.63;;
24897;SDS011;12957;49.434;8.684;2023-03-01T02:03:13;21.57;;;9.93;;
24897;SDS011;12957;49.434;8.684;2023-03-01T02:06:01;20.33;;;9.63;;
24897;SDS011;12957;49.434;8.684;2023-03-01T02:08:31;18.63;;;9.30;;
24897;SDS011;12957;49.434;8.684;2023-03-01T02:10:58;18.63;;;9.77;;
24897;SDS011;12957;49.434;8.684;2023-03-01T02:13:25;16.63;;;9.00;;
24897;SDS011;12957;49.434;8.684;2023-03-01T02:15:51;20.43;;;9.50;;
24897;SDS011;12957;49.434;8.684;2023-03-01T02:18:17;19.00;;;9.43;;
24897;SDS011;12957;49.434;8.684;2023-03-01T02:23:21;18.87;;;9.97;;
24897;SDS011;12957;49.434;8.684;2023-03-01T02:26:33;19.57;;;9.93;;
24897;SDS011;12957;49.434;8.684;2023-03-01T02:28:38;20.63;;;9.97;;
24897;SDS011;12957;49.434;8.684;2023-03-01T02:31:07;21.63;;;10.47;;
24897;SDS011;12957;49.434;8.684;2023-03-01T02:33:52;17.27;;;9.47;;
24897;SDS011;12957;49.434;8.684;2023-03-01T02:36:22;20.00;;;10.03;;
24897;SDS011;12957;49.434;8.684;2023-03-01T02:38:51;18.27;;;9.73;;
24897;SDS011;12957;49.434;8.684;2023-03-01T02:41:19;19.00;;;9.93;;
24897;SDS011;12957;49.434;8.684;2023-03-01T02:43:45;21.43;;;10.73;;
24897;SDS011;12957;49.434;8.684;2023-03-01T02:46:15;17.43;;;9.67;;
24897;SDS011;12957;49.434;8.684;2023-03-01T02:48:46;21.50;;;9.90;;
24897;SDS011;12957;49.434;8.684;2023-03-01T02:53:54;21.27;;;9.80;;
24897;SDS011;12957;49.434;8.684;2023-03-01T02:56:32;24.60;;;10.73;;
24897;SDS011;12957;49.434;8.684;2023-03-01T02:58:57;21.40;;;10.90;;
24897;SDS011;12957;49.434;8.684;2023-03-01T03:01:25;18.17;;;9.37;;
24897;SDS011;12957;49.434;8.684;2023-03-01T03:04:12;21.03;;;10.37;;
24897;SDS011;12957;49.434;8.684;2023-03-01T03:06:45;22.33;;;10.50;;
24897;SDS011;12957;49.434;8.684;2023-03-01T03:09:12;19.17;;;10.00;;
24897;SDS011;12957;49.434;8.684;2023-03-01T03:11:38;25.27;;;10.87;;
24897;SDS011;12957;49.434;8.684;2023-03-01T03:14:05;22.83;;;11.47;;
24897;SDS011;12957;49.434;8.684;2023-03-01T03:16:37;21.70;;;10.03;;
24897;SDS011;12957;49.434;8.684;2023-03-01T03:19:13;18.03;;;9.70;;
24897;SDS011;12957;49.434;8.684;2023-03-01T03:21:38;20.43;;;10.37;;
24897;SDS011;12957;49.434;8.684;2023-03-01T03:24:04;18.37;;;9.93;;
24897;SDS011;12957;49.434;8.684;2023-03-01T03:26:30;25.20;;;11.73;;
24897;SDS011;12957;49.434;8.684;2023-03-01T03:28:56;20.07;;;10.73;;
24897;SDS011;12957;49.434;8.684;2023-03-01T03:31:22;22.63;;;10.47;;
24897;SDS011;12957;49.434;8.684;2023-03-01T03:33:47;22.27;;;11.30;;
24897;SDS011;12957;49.434;8.684;2023-03-01T03:36:17;24.73;;;11.13;;
24897;SDS011;12957;49.434;8.684;2023-03-01T03:38:44;21.10;;;10.57;;
24897;SDS011;12957;49.434;8.684;2023-03-01T03:41:10;25.33;;;10.83;;
24897;SDS011;12957;49.434;8.684;2023-03-01T03:43:37;23.50;;;11.50;;
24897;SDS011;12957;49.434;8.684;2023-03-01T03:46:03;23.67;;;10.40;;
24897;SDS011;12957;49.434;8.684;2023-03-01T03:48:31;21.43;;;11.43;;
24897;SDS011;12957;49.434;8.684;2023-03-01T03:50:58;24.17;;;11.63;;
24897;SDS011;12957;49.434;8.684;2023-03-01T03:53:24;20.43;;;10.93;;
24897;SDS011;12957;49.434;8.684;2023-03-01T03:55:50;21.27;;;11.03;;
24897;SDS011;12957;49.434;8.684;2023-03-01T03:58:17;20.37;;;11.40;;
24897;SDS011;12957;49.434;8.684;2023-03-01T04:00:45;19.60;;;10.43;;
24897;SDS011;12957;49.434;8.684;2023-03-01T04:03:11;28.33;;;11.77;;
24897;SDS011;12957;49.434;8.684;2023-03-01T04:05:38;20.53;;;10.87;;
24897;SDS011;12957;49.434;8.684;2023-03-01T04:08:04;22.37;;;10.87;;
24897;SDS011;12957;49.434;8.684;2023-03-01T04:10:37;24.27;;;10.83;;
24897;SDS011;12957;49.434;8.684;2023-03-01T04:13:03;19.63;;;10.40;;
24897;SDS011;12957;49.434;8.684;2023-03-01T04:15:29;23.47;;;10.27;;
24897;SDS011;12957;49.434;8.684;2023-03-01T04:17:55;24.40;;;11.17;;
24897;SDS011;12957;49.434;8.684;2023-03-01T04:20:23;20.93;;;11.03;;
24897;SDS011;12957;49.434;8.684;2023-03-01T04:22:51;23.33;;;11.13;;
24897;SDS011;12957;49.434;8.684;2023-03-01T04:25:17;20.17;;;10.63;;
24897;SDS011;12957;49.434;8.684;2023-03-01T04:27:43;21.43;;;11.03;;
24897;SDS011;12957;49.434;8.684;2023-03-01T04:30:09;21.30;;;10.70;;
24897;SDS011;12957;49.434;8.684;2023-03-01T04:32:35;21.23;;;10.47;;
24897;SDS011;12957;49.434;8.684;2023-03-01T04:35:00;21.27;;;11.10;;
24897;SDS011;12957;49.434;8.684;2023-03-01T04:37:26;21.77;;;10.57;;
24897;SDS011;12957;49.434;8.684;2023-03-01T04:39:52;24.03;;;11.77;;
24897;SDS011;12957;49.434;8.684;2023-03-01T04:42:18;24.93;;;11.63;;
24897;SDS011;12957;49.434;8.684;2023-03-01T04:44:44;26.83;;;10.77;;
24897;SDS011;12957;49.434;8.684;2023-03-01T04:47:10;24.43;;;11.13;;
24897;SDS011;12957;49.434;8.684;2023-03-01T04:49:36;22.47;;;10.90;;
24897;SDS011;12957;49.434;8.684;2023-03-01T04:52:02;22.17;;;10.80;;
24897;SDS011;12957;49.434;8.684;2023-03-01T04:54:28;21.03;;;10.83;;
24897;SDS011;12957;49.434;8.684;2023-03-01T04:56:54;22.27;;;11.43;;
24897;SDS011;12957;49.434;8.684;2023-03-01T04:59:20;25.60;;;11.60;;
24897;SDS011;12957;49.434;8.684;2023-03-01T05:01:49;22.57;;;11.20;;
24897;SDS011;12957;49.434;8.684;2023-03-01T05:04:14;21.23;;;10.87;;
24897;SDS011;12957;49.434;8.684;2023-03-01T05:06:40;22.93;;;11.13;;
24897;SDS011;12957;49.434;8.684;2023-03-01T05:09:06;24.67;;;12.13;;
24897;SDS011;12957;49.434;8.684;2023-03-01T05:11:31;23.73;;;11.50;;
24897;SDS011;12957;49.434;8.684;2023-03-01T05:14:01;23.17;;;11.33;;
24897;SDS011;12957;49.434;8.684;2023-03-01T05:16:27;26.20;;;11.23;;
24897;SDS011;12957;49.434;8.684;2023-03-01T05:18:53;19.83;;;10.30;;
24897;SDS011;12957;49.434;8.684;2023-03-01T05:21:20;22.67;;;11.13;;
24897;SDS011;12957;49.434;8.684;2023-03-01T05:23:46;25.47;;;11.67;;
24897;SDS011;12957;49.434;8.684;2023-03-01T05:26:12;22.07;;;11.13;;
24897;SDS011;12957;49.434;8.684;2023-03-01T05:28:38;25.37;;;11.37;;
24897;SDS011;12957;49.434;8.684;2023-03-01T05:31:05;24.63;;;11.70;;
24897;SDS011;12957;49.434;8.684;2023-03-01T05:33:34;29.20;;;11.90;;
24897;SDS011;12957;49.434;8.684;2023-03-01T05:36:03;21.60;;;11.53;;
24897;SDS011;12957;49.434;8.684;2023-03-01T05:38:29;27.53;;;12.50;;
24897;SDS011;12957;49.434;8.684;2023-03-01T05:40:55;21.93;;;11.10;;
24897;SDS011;12957;49.434;8.684;2023-03-01T05:43:20;25.20;;;10.90;;
24897;SDS011;12957;49.434;8.684;2023-03-01T05:45:46;23.17;;;10.90;;
24897;SDS011;12957;49.434;8.684;2023-03-01T05:48:12;23.13;;;10.70;;
24897;SDS011;12957;49.434;8.684;2023-03-01T05:50:41;23.70;;;10.87;;
24897;SDS011;12957;49.434;8.684;2023-03-01T05:53:18;21.90;;;11.40;;
24897;SDS011;12957;49.434;8.684;2023-03-01T05:55:46;29.93;;;11.60;;
24897;SDS011;12957;49.434;8.684;2023-03-01T05:58:14;29.53;;;12.70;;
24897;SDS011;12957;49.434;8.684;2023-03-01T06:00:41;30.10;;;12.27;;
24897;SDS011;12957;49.434;8.684;2023-03-01T06:03:09;26.13;;;11.90;;
24897;SDS011;12957;49.434;8.684;2023-03-01T06:05:35;23.47;;;11.43;;
24897;SDS011;12957;49.434;8.684;2023-03-01T06:08:01;24.60;;;12.27;;
24897;SDS011;12957;49.434;8.684;2023-03-01T06:10:26;21.67;;;11.47;;
24897;SDS011;12957;49.434;8.684;2023-03-01T06:12:52;26.00;;;11.97;;
24897;SDS011;12957;49.434;8.684;2023-03-01T06:15:18;24.07;;;11.87;;
24897;SDS011;12957;49.434;8.684;2023-03-01T06:17:44;22.07;;;11.53;;
24897;SDS011;12957;49.434;8.684;2023-03-01T06:20:12;24.20;;;12.43;;
24897;SDS011;12957;49.434;8.684;2023-03-01T06:22:41;23.60;;;11.60;;
24897;SDS011;12957;49.434;8.684;2023-03-01T06:25:07;24.93;;;11.87;;
24897;SDS011;12957;49.434;8.684;2023-03-01T06:27:33;20.40;;;11.43;;
24897;SDS011;12957;49.434;8.684;2023-03-01T06:29:58;24.50;;;11.73;;
24897;SDS011;12957;49.434;8.684;2023-03-01T06:32:24;26.30;;;11.80;;
24897;SDS011;12957;49.434;8.684;2023-03-01T06:34:49;24.70;;;11.47;;
24897;SDS011;12957;49.434;8.684;2023-03-01T06:37:15;24.00;;;11.87;;
24897;SDS011;12957;49.434;8.684;2023-03-01T06:39:42;22.77;;;11.90;;
24897;SDS011;12957;49.434;8.684;2023-03-01T06:42:08;22.87;;;11.20;;
24897;SDS011;12957;49.434;8.684;2023-03-01T06:44:35;19.90;;;11.10;;
24897;SDS011;12957;49.434;8.684;2023-03-01T06:47:00;27.80;;;11.70;;
24897;SDS011;12957;49.434;8.684;2023-03-01T06:49:26;26.83;;;12.13;;
24897;SDS011;12957;49.434;8.684;2023-03-01T06:51:52;25.37;;;11.67;;
24897;SDS011;12957;49.434;8.684;2023-03-01T06:54:17;25.80;;;12.00;;
24897;SDS011;12957;49.434;8.684;2023-03-01T06:56:43;23.47;;;11.60;;
24897;SDS011;12957;49.434;8.684;2023-03-01T06:59:11;22.37;;;11.37;;
24897;SDS011;12957;49.434;8.684;2023-03-01T07:01:36;21.60;;;11.10;;
24897;SDS011;12957;49.434;8.684;2023-03-01T07:04:02;25.30;;;11.67;;
24897;SDS011;12957;49.434;8.684;2023-03-01T07:06:27;24.03;;;12.03;;
24897;SDS011;12957;49.434;8.684;2023-03-01T07:08:53;22.30;;;11.73;;
24897;SDS011;12957;49.434;8.684;2023-03-01T07:11:18;23.87;;;11.20;;
24897;SDS011;12957;49.434;8.684;2023-03-01T07:13:44;25.13;;;12.23;;
24897;SDS011;12957;49.434;8.684;2023-03-01T07:16:09;23.67;;;11.37;;
24897;SDS011;12957;49.434;8.684;2023-03-01T07:18:35;23.93;;;11.43;;
24897;SDS011;12957;49.434;8.684;2023-03-01T07:21:04;21.47;;;11.30;;
24897;SDS011;12957;49.434;8.684;2023-03-01T07:23:33;24.80;;;11.47;;
24897;SDS011;12957;49.434;8.684;2023-03-01T07:25:58;21.53;;;11.07;;
24897;SDS011;12957;49.434;8.684;2023-03-01T07:28:25;21.80;;;10.80;;
24897;SDS011;12957;49.434;8.684;2023-03-01T07:30:51;21.97;;;11.53;;
24897;SDS011;12957;49.434;8.684;2023-03-01T07:33:16;22.70;;;11.40;;
24897;SDS011;12957;49.434;8.684;2023-03-01T07:35:42;21.97;;;11.47;;
24897;SDS011;12957;49.434;8.684;2023-03-01T07:38:07;24.87;;;11.37;;
24897;SDS011;12957;49.434;8.684;2023-03-01T07:40:33;22.57;;;10.87;;
24897;SDS011;12957;49.434;8.684;2023-03-01T07:42:59;22.60;;;10.50;;
24897;SDS011;12957;49.434;8.684;2023-03-01T07:45:26;20.87;;;10.47;;
24897;SDS011;12957;49.434;8.684;2023-03-01T07:47:54;21.47;;;10.93;;
24897;SDS011;12957;49.434;8.684;2023-03-01T07:50:20;20.13;;;11.47;;
24897;SDS011;12957;49.434;8.684;2023-03-01T07:52:47;24.47;;;11.30;;
24897;SDS011;12957;49.434;8.684;2023-03-01T07:55:13;19.27;;;10.47;;
24897;SDS011;12957;49.434;8.684;2023-03-01T07:57:38;20.47;;;11.33;;
24897;SDS011;12957;49.434;8.684;2023-03-01T08:00:04;20.63;;;11.53;;
24897;SDS011;12957;49.434;8.684;2023-03-01T08:02:30;21.50;;;11.27;;
24897;SDS011;12957;49.434;8.684;2023-03-01T08:04:56;16.13;;;10.77;;
24897;SDS011;12957;49.434;8.684;2023-03-01T08:07:21;21.53;;;11.47;;
24897;SDS011;12957;49.434;8.684;2023-03-01T08:09:47;20.63;;;11.23;;
24897;SDS011;12957;49.434;8.684;2023-03-01T08:12:12;21.33;;;11.23;;
24897;SDS011;12957;49.434;8.684;2023-03-01T08:14:38;19.83;;;11.43;;
24897;SDS011;12957;49.434;8.684;2023-03-01T08:17:03;19.27;;;11.63;;
24897;SDS011;12957;49.434;8.684;2023-03-01T08:19:29;20.20;;;11.35;;
24897;SDS011;12957;49.434;8.684;2023-03-01T08:21:54;21.40;;;11.33;;
24897;SDS011;12957;49.434;8.684;2023-03-01T08:24:23;21.98;;;11.68;;
24897;SDS011;12957;49.434;8.684;2023-03-01T08:26:48;16.67;;;11.10;;
24897;SDS011;12957;49.434;8.684;2023-03-01T08:29:14;19.70;;;11.90;;
24897;SDS011;12957;49.434;8.684;2023-03-01T08:31:39;22.60;;;11.57;;
24897;SDS011;12957;49.434;8.684;2023-03-01T08:34:06;25.80;;;11.82;;
24897;SDS011;12957;49.434;8.684;2023-03-01T08:36:36;20.27;;;11.27;;
24897;SDS011;12957;49.434;8.684;2023-03-01T08:39:04;20.92;;;11.95;;
24897;SDS011;12957;49.434;8.684;2023-03-01T08:41:29;19.27;;;11.23;;
24897;SDS011;12957;49.434;8.684;2023-03-01T08:43:55;19.52;;;11.15;;
24897;SDS011;12957;49.434;8.684;2023-03-01T08:48:52;24.58;;;12.95;;
24897;SDS011;12957;49.434;8.684;2023-03-01T08:51:18;21.10;;;11.90;;
24897;SDS011;12957;49.434;8.684;2023-03-01T08:53:44;19.23;;;11.77;;
24897;SDS011;12957;49.434;8.684;2023-03-01T08:56:10;20.40;;;12.20;;
24897;SDS011;12957;49.434;8.684;2023-03-01T08:58:36;23.67;;;12.68;;
24897;SDS011;12957;49.434;8.684;2023-03-01T09:01:06;23.48;;;13.15;;
24897;SDS011;12957;49.434;8.684;2023-03-01T09:03:35;21.77;;;12.63;;
24897;SDS011;12957;49.434;8.684;2023-03-01T09:06:01;22.38;;;12.50;;
24897;SDS011;12957;49.434;8.684;2023-03-01T09:08:27;24.88;;;12.30;;
24897;SDS011;12957;49.434;8.684;2023-03-01T09:10:53;19.02;;;11.68;;
24897;SDS011;12957;49.434;8.684;2023-03-01T09:13:19;23.77;;;13.98;;
24897;SDS011;12957;49.434;8.684;2023-03-01T09:15:44;20.15;;;12.88;;
24897;SDS011;12957;49.434;8.684;2023-03-01T09:18:10;23.13;;;12.65;;
24897;SDS011;12957;49.434;8.684;2023-03-01T09:20:35;21.55;;;12.43;;
24897;SDS011;12957;49.434;8.684;2023-03-01T09:23:01;23.60;;;12.80;;
24897;SDS011;12957;49.434;8.684;2023-03-01T09:25:26;22.08;;;13.13;;
24897;SDS011;12957;49.434;8.684;2023-03-01T09:27:53;17.48;;;11.75;;
24897;SDS011;12957;49.434;8.684;2023-03-01T09:30:20;20.88;;;13.02;;
24897;SDS011;12957;49.434;8.684;2023-03-01T09:32:46;21.50;;;12.90;;
24897;SDS011;12957;49.434;8.684;2023-03-01T09:35:11;21.90;;;12.93;;
24897;SDS011;12957;49.434;8.684;2023-03-01T09:37:37;25.10;;;13.68;;
24897;SDS011;12957;49.434;8.684;2023-03-01T09:40:06;27.17;;;12.98;;
24897;SDS011;12957;49.434;8.684;2023-03-01T09:42:35;22.95;;;13.18;;
24897;SDS011;12957;49.434;8.684;2023-03-01T09:47:35;22.27;;;13.45;;
24897;SDS011;12957;49.434;8.684;2023-03-01T09:50:17;21.38;;;12.45;;
24897;SDS011;12957;49.434;8.684;2023-03-01T09:55:37;21.73;;;13.88;;
24897;SDS011;12957;49.434;8.684;2023-03-01T10:00:37;20.67;;;12.43;;
24897;SDS011;12957;49.434;8.684;2023-03-01T10:03:12;19.70;;;13.05;;
24897;SDS011;12957;49.434;8.684;2023-03-01T10:08:28;22.30;;;13.95;;
24897;SDS011;12957;49.434;8.684;2023-03-01T10:11:00;19.55;;;12.05;;
24897;SDS011;12957;49.434;8.684;2023-03-01T10:13:33;23.40;;;13.02;;
24897;SDS011;12957;49.434;8.684;2023-03-01T10:16:09;23.33;;;13.63;;
24897;SDS011;12957;49.434;8.684;2023-03-01T10:18:38;21.90;;;12.93;;
24897;SDS011;12957;49.434;8.684;2023-03-01T10:21:12;20.42;;;12.88;;
24897;SDS011;12957;49.434;8.684;2023-03-01T10:23:41;25.75;;;13.23;;
24897;SDS011;12957;49.434;8.684;2023-03-01T10:26:29;19.33;;;12.18;;
24897;SDS011;12957;49.434;8.684;2023-03-01T10:29:03;22.48;;;12.43;;
24897;SDS011;12957;49.434;8.684;2023-03-01T10:31:37;20.58;;;12.73;;
24897;SDS011;12957;49.434;8.684;2023-03-01T10:34:08;19.88;;;12.13;;
24897;SDS011;12957;49.434;8.684;2023-03-01T10:36:38;20.40;;;12.48;;
24897;SDS011;12957;49.434;8.684;2023-03-01T10:39:11;18.80;;;12.07;;
24897;SDS011;12957;49.434;8.684;2023-03-01T10:41:40;22.40;;;12.52;;
24897;SDS011;12957;49.434;8.684;2023-03-01T10:44:34;19.65;;;11.95;;
24897;SDS011;12957;49.434;8.684;2023-03-01T10:47:02;22.00;;;12.15;;
24897;SDS011;12957;49.434;8.684;2023-03-01T10:49:27;19.80;;;11.77;;
24897;SDS011;12957;49.434;8.684;2023-03-01T10:51:53;28.63;;;13.00;;
24897;SDS011;12957;49.434;8.684;2023-03-01T10:54:24;19.63;;;11.52;;
24897;SDS011;12957;49.434;8.684;2023-03-01T10:56:55;19.85;;;12.15;;
24897;SDS011;12957;49.434;8.684;2023-03-01T10:59:32;18.67;;;11.55;;
24897;SDS011;12957;49.434;8.684;2023-03-01T11:02:02;17.58;;;11.68;;
24897;SDS011;12957;49.434;8.684;2023-03-01T11:04:34;20.30;;;11.43;;
24897;SDS011;12957;49.434;8.684;2023-03-01T11:07:00;18.60;;;11.07;;
24897;SDS011;12957;49.434;8.684;2023-03-01T11:09:26;18.88;;;11.27;;
24897;SDS011;12957;49.434;8.684;2023-03-01T11:12:02;20.38;;;11.05;;
24897;SDS011;12957;49.434;8.684;2023-03-01T11:14:30;20.17;;;10.30;;
24897;SDS011;12957;49.434;8.684;2023-03-01T11:17:01;17.77;;;11.07;;
24897;SDS011;12957;49.434;8.684;2023-03-01T11:19:30;22.08;;;11.80;;
24897;SDS011;12957;49.434;8.684;2023-03-01T11:21:58;16.77;;;9.77;;
24897;SDS011;12957;49.434;8.684;2023-03-01T11:24:29;17.17;;;10.45;;
24897;SDS011;12957;49.434;8.684;2023-03-01T11:26:56;16.63;;;10.63;;
24897;SDS011;12957;49.434;8.684;2023-03-01T11:29:32;16.52;;;10.48;;
24897;SDS011;12957;49.434;8.684;2023-03-01T11:32:04;18.02;;;10.45;;
24897;SDS011;12957;49.434;8.684;2023-03-01T11:37:11;15.77;;;10.32;;
24897;SDS011;12957;49.434;8.684;2023-03-01T11:39:43;19.73;;;11.70;;
24897;SDS011;12957;49.434;8.684;2023-03-01T11:45:10;21.45;;;12.27;;
24897;SDS011;12957;49.434;8.684;2023-03-01T11:50:49;19.15;;;11.55;;
24897;SDS011;12957;49.434;8.684;2023-03-01T11:56:09;17.95;;;10.85;;
24897;SDS011;12957;49.434;8.684;2023-03-01T12:06:23;15.95;;;10.10;;
24897;SDS011;12957;49.434;8.684;2023-03-01T12:09:38;15.40;;;10.23;;
24897;SDS011;12957;49.434;8.684;2023-03-01T12:14:55;16.23;;;10.27;;
24897;SDS011;12957;49.434;8.684;2023-03-01T12:20:17;16.55;;;10.35;;
24897;SDS011;12957;49.434;8.684;2023-03-01T12:23:08;16.38;;;10.25;;
24897;SDS011;12957;49.434;8.684;2023-03-01T12:25:45;19.05;;;10.57;;
24897;SDS011;12957;49.434;8.684;2023-03-01T12:41:47;19.35;;;10.82;;
24897;SDS011;12957;49.434;8.684;2023-03-01T12:44:38;17.48;;;10.18;;
24897;SDS011;12957;49.434;8.684;2023-03-01T12:52:44;16.60;;;9.93;;
24897;SDS011;12957;49.434;8.684;2023-03-01T12:55:55;15.82;;;9.95;;
24897;SDS011;12957;49.434;8.684;2023-03-01T13:06:40;17.10;;;9.77;;
24897;SDS011;12957;49.434;8.684;2023-03-01T13:11:48;17.95;;;10.10;;
24897;SDS011;12957;49.434;8.684;2023-03-01T13:16:45;22.50;;;11.35;;
24897;SDS011;12957;49.434;8.684;2023-03-01T13:19:17;18.73;;;9.90;;
24897;SDS011;12957;49.434;8.684;2023-03-01T13:21:44;21.45;;;9.88;;
24897;SDS011;12957;49.434;8.684;2023-03-01T13:24:26;16.35;;;10.20;;
24897;SDS011;12957;49.434;8.684;2023-03-01T13:29:32;18.10;;;10.18;;
24897;SDS011;12957;49.434;8.684;2023-03-01T13:34:53;17.65;;;9.85;;
24897;SDS011;12957;49.434;8.684;2023-03-01T13:37:20;18.20;;;10.20;;
24897;SDS011;12957;49.434;8.684;2023-03-01T13:39:51;15.60;;;9.55;;
24897;SDS011;12957;49.434;8.684;2023-03-01T13:42:37;16.10;;;9.80;;
24897;SDS011;12957;49.434;8.684;2023-03-01T13:45:05;16.05;;;10.32;;
24897;SDS011;12957;49.434;8.684;2023-03-01T13:47:41;18.48;;;10.07;;
24897;SDS011;12957;49.434;8.684;2023-03-01T13:50:15;20.27;;;9.88;;
24897;SDS011;12957;49.434;8.684;2023-03-01T13:53:02;15.57;;;9.93;;
24897;SDS011;12957;49.434;8.684;2023-03-01T13:57:59;14.20;;;9.70;;
24897;SDS011;12957;49.434;8.684;2023-03-01T14:00:31;19.10;;;10.32;;
24897;SDS011;12957;49.434;8.684;2023-03-01T14:05:36;15.30;;;9.55;;
24897;SDS011;12957;49.434;8.684;2023-03-01T14:08:03;15.88;;;9.95;;
24897;SDS011;12957;49.434;8.684;2023-03-01T14:10:31;17.58;;;9.40;;
24897;SDS011;12957;49.434;8.684;2023-03-01T14:13:12;18.77;;;9.77;;
24897;SDS011;12957;49.434;8.684;2023-03-01T14:21:26;14.15;;;9.18;;
24897;SDS011;12957;49.434;8.684;2023-03-01T14:23:52;17.40;;;9.00;;
24897;SDS011;12957;49.434;8.684;2023-03-01T14:26:21;18.98;;;10.77;;
24897;SDS011;12957;49.434;8.684;2023-03-01T14:28:47;15.35;;;9.30;;
24897;SDS011;12957;49.434;8.684;2023-03-01T14:31:34;15.23;;;9.65;;
24897;SDS011;12957;49.434;8.684;2023-03-01T14:34:03;15.48;;;9.88;;
24897;SDS011;12957;49.434;8.684;2023-03-01T14:36:30;15.43;;;9.90;;
24897;SDS011;12957;49.434;8.684;2023-03-01T14:38:56;15.02;;;9.77;;
24897;SDS011;12957;49.434;8.684;2023-03-01T14:41:29;16.88;;;9.48;;
24897;SDS011;12957;49.434;8.684;2023-03-01T14:43:58;17.35;;;9.50;;
24897;SDS011;12957;49.434;8.684;2023-03-01T14:49:04;14.43;;;9.55;;
24897;SDS011;12957;49.434;8.684;2023-03-01T14:51:55;16.60;;;10.23;;
24897;SDS011;12957;49.434;8.684;2023-03-01T14:54:27;16.30;;;9.63;;
24897;SDS011;12957;49.434;8.684;2023-03-01T14:57:17;15.52;;;8.60;;
24897;SDS011;12957;49.434;8.684;2023-03-01T14:59:44;16.13;;;9.82;;
24897;SDS011;12957;49.434;8.684;2023-03-01T15:02:13;15.88;;;9.80;;
24897;SDS011;12957;49.434;8.684;2023-03-01T15:04:42;17.15;;;9.77;;
24897;SDS011;12957;49.434;8.684;2023-03-01T15:07:10;14.85;;;9.90;;
24897;SDS011;12957;49.434;8.684;2023-03-01T15:09:39;16.45;;;9.15;;
24897;SDS011;12957;49.434;8.684;2023-03-01T15:15:51;16.15;;;9.32;;
24897;SDS011;12957;49.434;8.684;2023-03-01T15:18:03;20.48;;;10.82;;
24897;SDS011;12957;49.434;8.684;2023-03-01T15:20:30;14.55;;;9.48;;
24897;SDS011;12957;49.434;8.684;2023-03-01T15:23:00;15.55;;;9.43;;
24897;SDS011;12957;49.434;8.684;2023-03-01T15:25:27;14.57;;;8.93;;
24897;SDS011;12957;49.434;8.684;2023-03-01T15:27:53;13.57;;;8.48;;
24897;SDS011;12957;49.434;8.684;2023-03-01T15:30:21;15.68;;;9.43;;
24897;SDS011;12957;49.434;8.684;2023-03-01T15:32:48;14.15;;;8.68;;
24897;SDS011;12957;49.434;8.684;2023-03-01T15:35:50;16.15;;;8.05;;
24897;SDS011;12957;49.434;8.684;2023-03-01T15:38:26;14.43;;;9.18;;
24897;SDS011;12957;49.434;8.684;2023-03-01T15:40:52;13.55;;;9.00;;
24897;SDS011;12957;49.434;8.684;2023-03-01T15:46:20;15.20;;;9.18;;
24897;SDS011;12957;49.434;8.684;2023-03-01T15:48:50;13.73;;;8.43;;
24897;SDS011;12957;49.434;8.684;2023-03-01T15:51:17;15.63;;;8.25;;
24897;SDS011;12957;49.434;8.684;2023-03-01T15:53:51;15.30;;;8.43;;
24897;SDS011;12957;49.434;8.684;2023-03-01T15:56:18;15.05;;;8.68;;
24897;SDS011;12957;49.434;8.684;2023-03-01T15:58:44;14.95;;;8.85;;
24897;SDS011;12957;49.434;8.684;2023-03-01T16:01:13;16.70;;;8.57;;
24897;SDS011;12957;49.434;8.684;2023-03-01T16:03:39;13.40;;;8.68;;
24897;SDS011;12957;49.434;8.684;2023-03-01T16:06:04;12.50;;;8.45;;
24897;SDS011;12957;49.434;8.684;2023-03-01T16:08:30;13.20;;;8.65;;
24897;SDS011;12957;49.434;8.684;2023-03-01T16:10:55;16.33;;;8.40;;
24897;SDS011;12957;49.434;8.684;2023-03-01T16:13:21;15.48;;;8.35;;
24897;SDS011;12957;49.434;8.684;2023-03-01T16:15:46;15.18;;;8.73;;